sensor_id;sensor_type;location;lat;lon;timestamp;P1;durP1;ratioP1;P2;durP2;ratioP2
13026;SDS011;6580;42.680;23.324;2023-04-09T00:00:47;11.53;;;9.17;;
13026;SDS011;6580;42.680;23.324;2023-04-09T00:03:34;10.60;;;8.40;;
13026;SDS011;6580;42.680;23.324;2023-04-09T00:06:21;11.00;;;9.00;;
13026;SDS011;6580;42.680;23.324;2023-04-09T00:09:13;10.43;;;8.57;;
13026;SDS011;6580;42.680;23.324;2023-04-09T00:11:59;9.37;;;8.30;;
13026;SDS011;6580;42.680;23.324;2023-04-09T00:14:46;10.03;;;8.50;;
13026;SDS011;6580;42.680;23.324;2023-04-09T00:17:36;9.93;;;8.17;;
13026;SDS011;6580;42.680;23.324;2023-04-09T00:20:22;9.30;;;8.20;;
13026;SDS011;6580;42.680;23.324;2023-04-09T00:23:10;10.77;;;8.93;;
13026;SDS011;6580;42.680;23.324;2023-04-09T00:25:57;12.47;;;8.87;;
13026;SDS011;6580;42.680;23.324;2023-04-09T00:28:45;12.00;;;8.57;;
13026;SDS011;6580;42.680;23.324;2023-04-09T00:31:31;11.40;;;9.20;;
13026;SDS011;6580;42.680;23.324;2023-04-09T00:34:18;12.37;;;8.93;;
13026;SDS011;6580;42.680;23.324;2023-04-09T00:37:07;10.87;;;9.17;;
13026;SDS011;6580;42.680;23.324;2023-04-09T00:39:52;10.00;;;9.00;;
13026;SDS011;6580;42.680;23.324;2023-04-09T00:42:40;10.57;;;8.60;;
13026;SDS011;6580;42.680;23.324;2023-04-09T00:45:26;10.43;;;8.83;;
13026;SDS011;6580;42.680;23.324;2023-04-09T00:48:13;10.70;;;9.13;;
13026;SDS011;6580;42.680;23.324;2023-04-09T00:51:02;9.43;;;8.43;;
13026;SDS011;6580;42.680;23.324;2023-04-09T00:53:49;10.80;;;8.23;;
13026;SDS011;6580;42.680;23.324;2023-04-09T00:56:35;9.77;;;8.20;;
13026;SDS011;6580;42.680;23.324;2023-04-09T00:59:23;10.30;;;8.63;;
13026;SDS011;6580;42.680;23.324;2023-04-09T01:02:09;10.80;;;8.97;;
13026;SDS011;6580;42.680;23.324;2023-04-09T01:04:55;10.73;;;8.83;;
13026;SDS011;6580;42.680;23.324;2023-04-09T01:07:46;10.93;;;8.47;;
13026;SDS011;6580;42.680;23.324;2023-04-09T01:10:40;9.60;;;8.00;;
13026;SDS011;6580;42.680;23.324;2023-04-09T01:13:33;9.27;;;8.30;;
13026;SDS011;6580;42.680;23.324;2023-04-09T01:16:25;9.30;;;8.20;;
13026;SDS011;6580;42.680;23.324;2023-04-09T01:19:18;8.57;;;7.53;;
13026;SDS011;6580;42.680;23.324;2023-04-09T01:22:30;10.33;;;7.97;;
13026;SDS011;6580;42.680;23.324;2023-04-09T01:25:34;9.17;;;8.07;;
13026;SDS011;6580;42.680;23.324;2023-04-09T01:28:30;10.73;;;7.90;;
13026;SDS011;6580;42.680;23.324;2023-04-09T01:31:17;9.60;;;7.60;;
13026;SDS011;6580;42.680;23.324;2023-04-09T01:34:05;10.07;;;8.23;;
13026;SDS011;6580;42.680;23.324;2023-04-09T01:36:55;9.67;;;8.13;;
13026;SDS011;6580;42.680;23.324;2023-04-09T01:39:44;9.57;;;8.53;;
13026;SDS011;6580;42.680;23.324;2023-04-09T01:42:32;10.20;;;8.63;;
13026;SDS011;6580;42.680;23.324;2023-04-09T01:45:21;10.07;;;8.10;;
13026;SDS011;6580;42.680;23.324;2023-04-09T01:48:09;10.27;;;8.23;;
13026;SDS011;6580;42.680;23.324;2023-04-09T01:51:04;9.63;;;8.20;;
13026;SDS011;6580;42.680;23.324;2023-04-09T01:53:51;10.73;;;9.13;;
13026;SDS011;6580;42.680;23.324;2023-04-09T01:56:41;9.67;;;8.67;;
13026;SDS011;6580;42.680;23.324;2023-04-09T01:59:27;9.27;;;7.57;;
13026;SDS011;6580;42.680;23.324;2023-04-09T02:02:16;9.73;;;8.50;;
13026;SDS011;6580;42.680;23.324;2023-04-09T02:05:09;9.53;;;8.40;;
13026;SDS011;6580;42.680;23.324;2023-04-09T02:07:59;9.07;;;7.87;;
13026;SDS011;6580;42.680;23.324;2023-04-09T02:10:48;8.93;;;8.03;;
13026;SDS011;6580;42.680;23.324;2023-04-09T02:13:38;10.67;;;8.67;;
13026;SDS011;6580;42.680;23.324;2023-04-09T02:16:25;10.60;;;9.03;;
13026;SDS011;6580;42.680;23.324;2023-04-09T02:19:20;9.57;;;8.47;;
13026;SDS011;6580;42.680;23.324;2023-04-09T02:22:06;9.07;;;8.10;;
13026;SDS011;6580;42.680;23.324;2023-04-09T02:24:53;10.47;;;8.50;;
13026;SDS011;6580;42.680;23.324;2023-04-09T02:27:38;12.23;;;8.93;;
13026;SDS011;6580;42.680;23.324;2023-04-09T02:30:25;12.53;;;8.93;;
13026;SDS011;6580;42.680;23.324;2023-04-09T02:33:11;10.57;;;9.47;;
13026;SDS011;6580;42.680;23.324;2023-04-09T02:35:58;10.93;;;9.00;;
13026;SDS011;6580;42.680;23.324;2023-04-09T02:38:44;10.20;;;8.27;;
13026;SDS011;6580;42.680;23.324;2023-04-09T02:41:31;10.80;;;8.90;;
13026;SDS011;6580;42.680;23.324;2023-04-09T02:44:19;10.80;;;8.37;;
13026;SDS011;6580;42.680;23.324;2023-04-09T02:47:06;9.50;;;8.30;;
13026;SDS011;6580;42.680;23.324;2023-04-09T02:49:52;10.47;;;8.70;;
13026;SDS011;6580;42.680;23.324;2023-04-09T02:52:39;11.57;;;9.63;;
13026;SDS011;6580;42.680;23.324;2023-04-09T02:55:26;9.93;;;8.60;;
13026;SDS011;6580;42.680;23.324;2023-04-09T02:58:12;11.10;;;9.37;;
13026;SDS011;6580;42.680;23.324;2023-04-09T03:00:58;11.60;;;9.47;;
13026;SDS011;6580;42.680;23.324;2023-04-09T03:03:44;11.13;;;8.87;;
13026;SDS011;6580;42.680;23.324;2023-04-09T03:06:30;10.53;;;8.70;;
13026;SDS011;6580;42.680;23.324;2023-04-09T03:09:17;10.27;;;8.77;;
13026;SDS011;6580;42.680;23.324;2023-04-09T03:12:03;12.37;;;9.37;;
13026;SDS011;6580;42.680;23.324;2023-04-09T03:14:49;12.13;;;9.20;;
13026;SDS011;6580;42.680;23.324;2023-04-09T03:17:35;11.10;;;9.27;;
13026;SDS011;6580;42.680;23.324;2023-04-09T03:20:23;12.13;;;9.00;;
13026;SDS011;6580;42.680;23.324;2023-04-09T03:23:09;11.30;;;9.13;;
13026;SDS011;6580;42.680;23.324;2023-04-09T03:26:03;9.97;;;8.87;;
13026;SDS011;6580;42.680;23.324;2023-04-09T03:28:51;13.33;;;9.57;;
13026;SDS011;6580;42.680;23.324;2023-04-09T03:31:37;10.90;;;9.33;;
13026;SDS011;6580;42.680;23.324;2023-04-09T03:34:23;14.43;;;10.23;;
13026;SDS011;6580;42.680;23.324;2023-04-09T03:37:12;13.90;;;10.63;;
13026;SDS011;6580;42.680;23.324;2023-04-09T03:40:02;17.70;;;11.80;;
13026;SDS011;6580;42.680;23.324;2023-04-09T03:42:56;12.47;;;10.47;;
13026;SDS011;6580;42.680;23.324;2023-04-09T03:45:46;11.93;;;10.37;;
13026;SDS011;6580;42.680;23.324;2023-04-09T03:48:37;13.13;;;10.27;;
13026;SDS011;6580;42.680;23.324;2023-04-09T03:51:24;12.93;;;9.50;;
13026;SDS011;6580;42.680;23.324;2023-04-09T03:54:11;13.57;;;10.00;;
13026;SDS011;6580;42.680;23.324;2023-04-09T03:56:58;14.93;;;10.37;;
13026;SDS011;6580;42.680;23.324;2023-04-09T03:59:49;12.43;;;9.73;;
13026;SDS011;6580;42.680;23.324;2023-04-09T04:02:34;14.20;;;10.73;;
13026;SDS011;6580;42.680;23.324;2023-04-09T04:05:21;14.63;;;11.03;;
13026;SDS011;6580;42.680;23.324;2023-04-09T04:08:10;14.17;;;11.10;;
13026;SDS011;6580;42.680;23.324;2023-04-09T04:11:01;16.87;;;11.40;;
13026;SDS011;6580;42.680;23.324;2023-04-09T04:13:48;15.07;;;11.23;;
13026;SDS011;6580;42.680;23.324;2023-04-09T04:16:36;11.50;;;10.30;;
13026;SDS011;6580;42.680;23.324;2023-04-09T04:19:23;13.47;;;10.60;;
13026;SDS011;6580;42.680;23.324;2023-04-09T04:22:09;14.57;;;11.70;;
13026;SDS011;6580;42.680;23.324;2023-04-09T04:24:54;14.63;;;11.40;;
13026;SDS011;6580;42.680;23.324;2023-04-09T04:27:40;17.53;;;12.37;;
13026;SDS011;6580;42.680;23.324;2023-04-09T04:30:25;14.27;;;11.07;;
13026;SDS011;6580;42.680;23.324;2023-04-09T04:33:12;13.97;;;11.57;;
13026;SDS011;6580;42.680;23.324;2023-04-09T04:36:03;12.57;;;9.93;;
13026;SDS011;6580;42.680;23.324;2023-04-09T04:38:49;15.33;;;11.47;;
13026;SDS011;6580;42.680;23.324;2023-04-09T04:41:34;14.37;;;12.17;;
13026;SDS011;6580;42.680;23.324;2023-04-09T04:44:20;15.13;;;11.13;;
13026;SDS011;6580;42.680;23.324;2023-04-09T04:47:05;15.33;;;12.10;;
13026;SDS011;6580;42.680;23.324;2023-04-09T04:49:53;14.63;;;11.10;;
13026;SDS011;6580;42.680;23.324;2023-04-09T04:52:38;16.57;;;13.40;;
13026;SDS011;6580;42.680;23.324;2023-04-09T04:55:24;16.87;;;11.97;;
13026;SDS011;6580;42.680;23.324;2023-04-09T04:58:09;15.77;;;12.10;;
13026;SDS011;6580;42.680;23.324;2023-04-09T05:00:55;17.20;;;12.23;;
13026;SDS011;6580;42.680;23.324;2023-04-09T05:03:40;17.10;;;12.00;;
13026;SDS011;6580;42.680;23.324;2023-04-09T05:06:27;15.67;;;11.73;;
13026;SDS011;6580;42.680;23.324;2023-04-09T05:09:14;16.10;;;12.37;;
13026;SDS011;6580;42.680;23.324;2023-04-09T05:11:59;16.57;;;12.77;;
13026;SDS011;6580;42.680;23.324;2023-04-09T05:14:44;16.57;;;12.10;;
13026;SDS011;6580;42.680;23.324;2023-04-09T05:17:31;16.47;;;13.20;;
13026;SDS011;6580;42.680;23.324;2023-04-09T05:20:17;15.27;;;11.70;;
13026;SDS011;6580;42.680;23.324;2023-04-09T05:23:04;16.87;;;12.47;;
13026;SDS011;6580;42.680;23.324;2023-04-09T05:25:49;14.60;;;11.80;;
13026;SDS011;6580;42.680;23.324;2023-04-09T05:28:35;17.47;;;11.90;;
13026;SDS011;6580;42.680;23.324;2023-04-09T05:31:20;15.53;;;11.50;;
13026;SDS011;6580;42.680;23.324;2023-04-09T05:34:06;16.33;;;12.27;;
13026;SDS011;6580;42.680;23.324;2023-04-09T05:36:52;18.27;;;12.07;;
13026;SDS011;6580;42.680;23.324;2023-04-09T05:39:39;16.07;;;12.00;;
13026;SDS011;6580;42.680;23.324;2023-04-09T05:42:25;17.70;;;11.97;;
13026;SDS011;6580;42.680;23.324;2023-04-09T05:45:10;16.37;;;11.87;;
13026;SDS011;6580;42.680;23.324;2023-04-09T05:47:55;16.03;;;11.90;;
13026;SDS011;6580;42.680;23.324;2023-04-09T05:50:41;15.20;;;11.30;;
13026;SDS011;6580;42.680;23.324;2023-04-09T05:53:26;14.90;;;10.23;;
13026;SDS011;6580;42.680;23.324;2023-04-09T05:56:14;13.10;;;9.90;;
13026;SDS011;6580;42.680;23.324;2023-04-09T05:58:59;14.70;;;10.90;;
13026;SDS011;6580;42.680;23.324;2023-04-09T06:01:45;12.93;;;10.50;;
13026;SDS011;6580;42.680;23.324;2023-04-09T06:04:32;15.33;;;10.70;;
13026;SDS011;6580;42.680;23.324;2023-04-09T06:07:17;13.30;;;10.00;;
13026;SDS011;6580;42.680;23.324;2023-04-09T06:10:03;13.63;;;10.87;;
13026;SDS011;6580;42.680;23.324;2023-04-09T06:12:52;15.20;;;11.40;;
13026;SDS011;6580;42.680;23.324;2023-04-09T06:15:37;13.23;;;10.30;;
13026;SDS011;6580;42.680;23.324;2023-04-09T06:18:23;15.67;;;12.17;;
13026;SDS011;6580;42.680;23.324;2023-04-09T06:21:09;16.10;;;11.57;;
13026;SDS011;6580;42.680;23.324;2023-04-09T06:23:56;13.70;;;9.87;;
13026;SDS011;6580;42.680;23.324;2023-04-09T06:26:41;11.63;;;9.20;;
13026;SDS011;6580;42.680;23.324;2023-04-09T06:29:28;13.43;;;10.90;;
13026;SDS011;6580;42.680;23.324;2023-04-09T06:32:14;13.67;;;10.17;;
13026;SDS011;6580;42.680;23.324;2023-04-09T06:35:00;14.23;;;10.40;;
13026;SDS011;6580;42.680;23.324;2023-04-09T06:37:46;14.93;;;10.57;;
13026;SDS011;6580;42.680;23.324;2023-04-09T06:40:31;12.47;;;9.63;;
13026;SDS011;6580;42.680;23.324;2023-04-09T06:43:17;11.70;;;8.60;;
13026;SDS011;6580;42.680;23.324;2023-04-09T06:46:03;14.07;;;9.63;;
13026;SDS011;6580;42.680;23.324;2023-04-09T06:48:49;10.07;;;8.37;;
13026;SDS011;6580;42.680;23.324;2023-04-09T06:51:34;12.07;;;8.70;;
13026;SDS011;6580;42.680;23.324;2023-04-09T06:54:20;11.17;;;9.13;;
13026;SDS011;6580;42.680;23.324;2023-04-09T06:57:05;10.07;;;8.27;;
13026;SDS011;6580;42.680;23.324;2023-04-09T06:59:51;9.97;;;8.63;;
13026;SDS011;6580;42.680;23.324;2023-04-09T07:02:38;11.63;;;8.83;;
13026;SDS011;6580;42.680;23.324;2023-04-09T07:05:23;11.20;;;9.30;;
13026;SDS011;6580;42.680;23.324;2023-04-09T07:08:09;12.07;;;9.30;;
13026;SDS011;6580;42.680;23.324;2023-04-09T07:10:55;9.53;;;8.40;;
13026;SDS011;6580;42.680;23.324;2023-04-09T07:13:40;10.33;;;8.33;;
13026;SDS011;6580;42.680;23.324;2023-04-09T07:16:26;11.17;;;9.17;;
13026;SDS011;6580;42.680;23.324;2023-04-09T07:19:15;11.53;;;9.53;;
13026;SDS011;6580;42.680;23.324;2023-04-09T07:22:00;12.13;;;9.53;;
13026;SDS011;6580;42.680;23.324;2023-04-09T07:24:46;9.73;;;8.40;;
13026;SDS011;6580;42.680;23.324;2023-04-09T07:27:36;11.13;;;8.53;;
13026;SDS011;6580;42.680;23.324;2023-04-09T07:30:21;10.30;;;7.87;;
13026;SDS011;6580;42.680;23.324;2023-04-09T07:33:07;10.93;;;8.53;;
13026;SDS011;6580;42.680;23.324;2023-04-09T07:35:54;9.40;;;8.00;;
13026;SDS011;6580;42.680;23.324;2023-04-09T07:38:40;7.90;;;7.10;;
13026;SDS011;6580;42.680;23.324;2023-04-09T07:41:27;11.33;;;8.30;;
13026;SDS011;6580;42.680;23.324;2023-04-09T07:44:12;8.83;;;7.57;;
13026;SDS011;6580;42.680;23.324;2023-04-09T07:47:06;10.00;;;7.17;;
13026;SDS011;6580;42.680;23.324;2023-04-09T07:49:52;10.00;;;7.40;;
13026;SDS011;6580;42.680;23.324;2023-04-09T07:52:41;8.67;;;7.77;;
13026;SDS011;6580;42.680;23.324;2023-04-09T07:55:27;8.43;;;7.13;;
13026;SDS011;6580;42.680;23.324;2023-04-09T07:58:12;7.97;;;7.03;;
13026;SDS011;6580;42.680;23.324;2023-04-09T08:00:58;8.83;;;6.73;;
13026;SDS011;6580;42.680;23.324;2023-04-09T08:03:44;8.40;;;7.13;;
13026;SDS011;6580;42.680;23.324;2023-04-09T08:06:29;9.57;;;8.10;;
13026;SDS011;6580;42.680;23.324;2023-04-09T08:09:17;8.90;;;7.20;;
13026;SDS011;6580;42.680;23.324;2023-04-09T08:12:03;8.57;;;7.27;;
13026;SDS011;6580;42.680;23.324;2023-04-09T08:14:49;10.73;;;7.93;;
13026;SDS011;6580;42.680;23.324;2023-04-09T08:17:35;7.83;;;7.03;;
13026;SDS011;6580;42.680;23.324;2023-04-09T08:20:20;7.20;;;5.87;;
13026;SDS011;6580;42.680;23.324;2023-04-09T08:23:10;8.73;;;7.27;;
13026;SDS011;6580;42.680;23.324;2023-04-09T08:25:57;9.37;;;7.70;;
13026;SDS011;6580;42.680;23.324;2023-04-09T08:28:42;8.43;;;7.43;;
13026;SDS011;6580;42.680;23.324;2023-04-09T08:31:29;10.40;;;7.97;;
13026;SDS011;6580;42.680;23.324;2023-04-09T08:34:15;9.73;;;6.90;;
13026;SDS011;6580;42.680;23.324;2023-04-09T08:37:03;9.07;;;7.53;;
13026;SDS011;6580;42.680;23.324;2023-04-09T08:39:49;10.47;;;8.03;;
13026;SDS011;6580;42.680;23.324;2023-04-09T08:42:36;10.27;;;7.37;;
13026;SDS011;6580;42.680;23.324;2023-04-09T08:45:27;10.33;;;8.07;;
13026;SDS011;6580;42.680;23.324;2023-04-09T08:48:12;11.43;;;8.13;;
13026;SDS011;6580;42.680;23.324;2023-04-09T08:50:58;8.93;;;7.60;;
13026;SDS011;6580;42.680;23.324;2023-04-09T08:53:44;11.53;;;8.47;;
13026;SDS011;6580;42.680;23.324;2023-04-09T08:56:33;12.17;;;9.43;;
13026;SDS011;6580;42.680;23.324;2023-04-09T08:59:20;9.80;;;8.43;;
13026;SDS011;6580;42.680;23.324;2023-04-09T09:02:05;10.57;;;7.60;;
13026;SDS011;6580;42.680;23.324;2023-04-09T09:04:51;10.57;;;8.13;;
13026;SDS011;6580;42.680;23.324;2023-04-09T09:07:49;10.00;;;8.03;;
13026;SDS011;6580;42.680;23.324;2023-04-09T09:10:38;9.03;;;7.47;;
13026;SDS011;6580;42.680;23.324;2023-04-09T09:13:25;9.17;;;7.50;;
13026;SDS011;6580;42.680;23.324;2023-04-09T09:16:13;8.67;;;7.77;;
13026;SDS011;6580;42.680;23.324;2023-04-09T09:18:59;9.53;;;7.43;;
13026;SDS011;6580;42.680;23.324;2023-04-09T09:21:53;9.37;;;7.63;;
13026;SDS011;6580;42.680;23.324;2023-04-09T09:24:44;9.50;;;7.90;;
13026;SDS011;6580;42.680;23.324;2023-04-09T09:27:32;9.10;;;7.07;;
13026;SDS011;6580;42.680;23.324;2023-04-09T09:30:19;8.00;;;7.20;;
13026;SDS011;6580;42.680;23.324;2023-04-09T09:33:07;10.10;;;7.80;;
13026;SDS011;6580;42.680;23.324;2023-04-09T09:35:53;9.23;;;8.23;;
13026;SDS011;6580;42.680;23.324;2023-04-09T09:38:50;8.70;;;6.87;;
13026;SDS011;6580;42.680;23.324;2023-04-09T09:41:37;9.13;;;8.23;;
13026;SDS011;6580;42.680;23.324;2023-04-09T09:44:31;7.93;;;7.13;;
13026;SDS011;6580;42.680;23.324;2023-04-09T09:47:17;7.97;;;7.17;;
13026;SDS011;6580;42.680;23.324;2023-04-09T09:50:05;7.80;;;6.90;;
13026;SDS011;6580;42.680;23.324;2023-04-09T09:52:52;8.00;;;7.20;;
13026;SDS011;6580;42.680;23.324;2023-04-09T09:55:43;8.93;;;7.27;;
13026;SDS011;6580;42.680;23.324;2023-04-09T09:58:35;7.67;;;6.53;;
13026;SDS011;6580;42.680;23.324;2023-04-09T10:01:22;7.13;;;6.43;;
13026;SDS011;6580;42.680;23.324;2023-04-09T10:04:11;7.07;;;6.37;;
13026;SDS011;6580;42.680;23.324;2023-04-09T10:07:00;7.43;;;6.17;;
13026;SDS011;6580;42.680;23.324;2023-04-09T10:09:49;7.40;;;6.60;;
13026;SDS011;6580;42.680;23.324;2023-04-09T10:12:35;6.90;;;6.03;;
13026;SDS011;6580;42.680;23.324;2023-04-09T10:15:24;6.77;;;6.17;;
13026;SDS011;6580;42.680;23.324;2023-04-09T10:18:09;7.43;;;6.30;;
13026;SDS011;6580;42.680;23.324;2023-04-09T10:20:56;6.40;;;5.80;;
13026;SDS011;6580;42.680;23.324;2023-04-09T10:23:46;8.00;;;6.87;;
13026;SDS011;6580;42.680;23.324;2023-04-09T10:26:33;7.37;;;6.60;;
13026;SDS011;6580;42.680;23.324;2023-04-09T10:29:25;7.53;;;6.67;;
13026;SDS011;6580;42.680;23.324;2023-04-09T10:32:16;6.57;;;5.87;;
13026;SDS011;6580;42.680;23.324;2023-04-09T10:35:09;6.73;;;5.97;;
13026;SDS011;6580;42.680;23.324;2023-04-09T10:37:54;7.40;;;6.70;;
13026;SDS011;6580;42.680;23.324;2023-04-09T10:40:42;6.83;;;6.17;;
13026;SDS011;6580;42.680;23.324;2023-04-09T10:43:33;7.87;;;5.93;;
13026;SDS011;6580;42.680;23.324;2023-04-09T10:46:24;6.67;;;6.07;;
13026;SDS011;6580;42.680;23.324;2023-04-09T10:49:15;6.30;;;5.70;;
13026;SDS011;6580;42.680;23.324;2023-04-09T10:52:01;6.60;;;5.87;;
13026;SDS011;6580;42.680;23.324;2023-04-09T10:54:51;7.20;;;6.50;;
13026;SDS011;6580;42.680;23.324;2023-04-09T10:57:40;6.57;;;5.97;;
13026;SDS011;6580;42.680;23.324;2023-04-09T11:00:27;7.00;;;5.90;;
13026;SDS011;6580;42.680;23.324;2023-04-09T11:03:20;6.70;;;6.10;;
13026;SDS011;6580;42.680;23.324;2023-04-09T11:06:08;6.50;;;5.90;;
13026;SDS011;6580;42.680;23.324;2023-04-09T11:08:55;6.33;;;5.63;;
13026;SDS011;6580;42.680;23.324;2023-04-09T11:11:50;7.00;;;5.97;;
13026;SDS011;6580;42.680;23.324;2023-04-09T11:14:40;6.70;;;6.00;;
13026;SDS011;6580;42.680;23.324;2023-04-09T11:17:25;5.97;;;5.47;;
13026;SDS011;6580;42.680;23.324;2023-04-09T11:20:12;6.30;;;5.80;;
13026;SDS011;6580;42.680;23.324;2023-04-09T11:23:03;6.27;;;5.67;;
13026;SDS011;6580;42.680;23.324;2023-04-09T11:25:51;6.33;;;5.73;;
13026;SDS011;6580;42.680;23.324;2023-04-09T11:28:37;7.30;;;5.90;;
13026;SDS011;6580;42.680;23.324;2023-04-09T11:31:42;6.47;;;5.83;;
13026;SDS011;6580;42.680;23.324;2023-04-09T11:34:28;6.93;;;6.17;;
13026;SDS011;6580;42.680;23.324;2023-04-09T11:37:14;6.77;;;6.07;;
13026;SDS011;6580;42.680;23.324;2023-04-09T11:40:02;6.53;;;5.93;;
13026;SDS011;6580;42.680;23.324;2023-04-09T11:42:50;7.33;;;6.37;;
13026;SDS011;6580;42.680;23.324;2023-04-09T11:45:37;6.53;;;5.87;;
13026;SDS011;6580;42.680;23.324;2023-04-09T11:48:24;7.23;;;6.30;;
13026;SDS011;6580;42.680;23.324;2023-04-09T11:51:10;7.57;;;6.70;;
13026;SDS011;6580;42.680;23.324;2023-04-09T11:54:01;7.73;;;6.27;;
13026;SDS011;6580;42.680;23.324;2023-04-09T11:56:48;5.80;;;5.20;;
13026;SDS011;6580;42.680;23.324;2023-04-09T11:59:38;6.77;;;6.10;;
13026;SDS011;6580;42.680;23.324;2023-04-09T12:02:23;6.50;;;5.87;;
13026;SDS011;6580;42.680;23.324;2023-04-09T12:05:11;7.07;;;5.53;;
13026;SDS011;6580;42.680;23.324;2023-04-09T12:08:06;5.67;;;5.17;;
13026;SDS011;6580;42.680;23.324;2023-04-09T12:10:53;6.43;;;5.70;;
13026;SDS011;6580;42.680;23.324;2023-04-09T12:13:38;5.97;;;5.37;;
13026;SDS011;6580;42.680;23.324;2023-04-09T12:16:26;6.33;;;5.73;;
13026;SDS011;6580;42.680;23.324;2023-04-09T12:19:14;5.87;;;5.27;;
13026;SDS011;6580;42.680;23.324;2023-04-09T12:22:01;6.50;;;5.90;;
13026;SDS011;6580;42.680;23.324;2023-04-09T12:24:46;7.93;;;6.83;;
13026;SDS011;6580;42.680;23.324;2023-04-09T12:27:32;7.40;;;6.27;;
13026;SDS011;6580;42.680;23.324;2023-04-09T12:30:17;6.13;;;5.53;;
13026;SDS011;6580;42.680;23.324;2023-04-09T12:33:02;6.13;;;5.40;;
13026;SDS011;6580;42.680;23.324;2023-04-09T12:35:48;5.73;;;5.23;;
13026;SDS011;6580;42.680;23.324;2023-04-09T12:38:35;5.93;;;5.33;;
13026;SDS011;6580;42.680;23.324;2023-04-09T12:41:22;6.43;;;5.83;;
13026;SDS011;6580;42.680;23.324;2023-04-09T12:44:07;5.57;;;5.00;;
13026;SDS011;6580;42.680;23.324;2023-04-09T12:46:53;5.57;;;5.07;;
13026;SDS011;6580;42.680;23.324;2023-04-09T12:49:39;5.87;;;5.27;;
13026;SDS011;6580;42.680;23.324;2023-04-09T12:52:28;5.97;;;5.37;;
13026;SDS011;6580;42.680;23.324;2023-04-09T12:55:14;6.63;;;5.73;;
13026;SDS011;6580;42.680;23.324;2023-04-09T12:58:00;5.60;;;5.10;;
13026;SDS011;6580;42.680;23.324;2023-04-09T13:00:45;5.37;;;4.87;;
13026;SDS011;6580;42.680;23.324;2023-04-09T13:03:31;6.67;;;5.17;;
13026;SDS011;6580;42.680;23.324;2023-04-09T13:06:16;5.67;;;5.07;;
13026;SDS011;6580;42.680;23.324;2023-04-09T13:09:02;5.70;;;5.20;;
13026;SDS011;6580;42.680;23.324;2023-04-09T13:11:49;6.60;;;5.47;;
13026;SDS011;6580;42.680;23.324;2023-04-09T13:14:34;6.30;;;5.70;;
13026;SDS011;6580;42.680;23.324;2023-04-09T13:17:20;6.93;;;6.10;;
13026;SDS011;6580;42.680;23.324;2023-04-09T13:20:06;5.37;;;4.90;;
13026;SDS011;6580;42.680;23.324;2023-04-09T13:22:52;5.00;;;4.60;;
13026;SDS011;6580;42.680;23.324;2023-04-09T13:25:38;7.67;;;5.33;;
13026;SDS011;6580;42.680;23.324;2023-04-09T13:28:24;7.37;;;4.50;;
13026;SDS011;6580;42.680;23.324;2023-04-09T13:31:10;6.83;;;5.47;;
13026;SDS011;6580;42.680;23.324;2023-04-09T13:33:55;5.30;;;4.80;;
13026;SDS011;6580;42.680;23.324;2023-04-09T13:36:41;5.37;;;4.83;;
13026;SDS011;6580;42.680;23.324;2023-04-09T13:39:26;5.10;;;4.57;;
13026;SDS011;6580;42.680;23.324;2023-04-09T13:42:11;5.13;;;4.63;;
13026;SDS011;6580;42.680;23.324;2023-04-09T13:44:58;4.97;;;4.47;;
13026;SDS011;6580;42.680;23.324;2023-04-09T13:47:43;5.80;;;5.17;;
13026;SDS011;6580;42.680;23.324;2023-04-09T13:50:29;7.10;;;6.00;;
13026;SDS011;6580;42.680;23.324;2023-04-09T13:53:14;6.40;;;5.73;;
13026;SDS011;6580;42.680;23.324;2023-04-09T13:56:00;7.30;;;5.97;;
13026;SDS011;6580;42.680;23.324;2023-04-09T13:58:46;6.37;;;5.77;;
13026;SDS011;6580;42.680;23.324;2023-04-09T14:01:33;8.80;;;5.83;;
13026;SDS011;6580;42.680;23.324;2023-04-09T14:04:18;7.50;;;6.80;;
13026;SDS011;6580;42.680;23.324;2023-04-09T14:07:04;7.03;;;6.10;;
13026;SDS011;6580;42.680;23.324;2023-04-09T14:09:49;5.20;;;4.70;;
13026;SDS011;6580;42.680;23.324;2023-04-09T14:12:35;7.53;;;6.10;;
13026;SDS011;6580;42.680;23.324;2023-04-09T14:15:20;7.50;;;6.37;;
13026;SDS011;6580;42.680;23.324;2023-04-09T14:18:09;6.37;;;5.70;;
13026;SDS011;6580;42.680;23.324;2023-04-09T14:20:54;6.53;;;5.70;;
13026;SDS011;6580;42.680;23.324;2023-04-09T14:23:39;5.53;;;5.03;;
13026;SDS011;6580;42.680;23.324;2023-04-09T14:26:25;5.30;;;4.80;;
13026;SDS011;6580;42.680;23.324;2023-04-09T14:29:11;5.40;;;4.87;;
13026;SDS011;6580;42.680;23.324;2023-04-09T14:31:56;5.33;;;4.83;;
13026;SDS011;6580;42.680;23.324;2023-04-09T14:34:44;5.93;;;5.10;;
13026;SDS011;6580;42.680;23.324;2023-04-09T14:37:29;6.00;;;5.40;;
13026;SDS011;6580;42.680;23.324;2023-04-09T14:40:15;5.80;;;4.87;;
13026;SDS011;6580;42.680;23.324;2023-04-09T14:43:00;10.70;;;8.13;;
13026;SDS011;6580;42.680;23.324;2023-04-09T14:45:45;10.43;;;9.33;;
13026;SDS011;6580;42.680;23.324;2023-04-09T14:48:31;13.10;;;8.80;;
13026;SDS011;6580;42.680;23.324;2023-04-09T14:51:19;11.87;;;9.73;;
13026;SDS011;6580;42.680;23.324;2023-04-09T14:54:04;8.80;;;6.77;;
13026;SDS011;6580;42.680;23.324;2023-04-09T14:56:49;7.33;;;6.63;;
13026;SDS011;6580;42.680;23.324;2023-04-09T14:59:35;9.53;;;8.10;;
13026;SDS011;6580;42.680;23.324;2023-04-09T15:02:20;7.47;;;6.50;;
13026;SDS011;6580;42.680;23.324;2023-04-09T15:05:06;7.20;;;6.30;;
13026;SDS011;6580;42.680;23.324;2023-04-09T15:07:55;5.77;;;5.10;;
13026;SDS011;6580;42.680;23.324;2023-04-09T15:10:41;7.77;;;6.93;;
13026;SDS011;6580;42.680;23.324;2023-04-09T15:13:26;7.43;;;6.57;;
13026;SDS011;6580;42.680;23.324;2023-04-09T15:16:19;8.20;;;6.63;;
13026;SDS011;6580;42.680;23.324;2023-04-09T15:19:04;9.37;;;8.10;;
13026;SDS011;6580;42.680;23.324;2023-04-09T15:21:50;12.17;;;8.40;;
13026;SDS011;6580;42.680;23.324;2023-04-09T15:24:37;6.00;;;5.40;;
13026;SDS011;6580;42.680;23.324;2023-04-09T15:27:22;5.73;;;5.13;;
13026;SDS011;6580;42.680;23.324;2023-04-09T15:30:08;5.57;;;5.03;;
13026;SDS011;6580;42.680;23.324;2023-04-09T15:32:54;5.27;;;4.77;;
13026;SDS011;6580;42.680;23.324;2023-04-09T15:35:39;6.87;;;6.17;;
13026;SDS011;6580;42.680;23.324;2023-04-09T15:38:24;5.03;;;4.53;;
13026;SDS011;6580;42.680;23.324;2023-04-09T15:41:11;6.63;;;5.47;;
13026;SDS011;6580;42.680;23.324;2023-04-09T15:43:59;9.70;;;7.63;;
13026;SDS011;6580;42.680;23.324;2023-04-09T15:46:45;8.87;;;7.97;;
13026;SDS011;6580;42.680;23.324;2023-04-09T15:49:30;10.90;;;9.80;;
13026;SDS011;6580;42.680;23.324;2023-04-09T15:52:18;11.50;;;9.03;;
13026;SDS011;6580;42.680;23.324;2023-04-09T15:55:04;7.83;;;6.90;;
13026;SDS011;6580;42.680;23.324;2023-04-09T15:57:51;9.73;;;8.47;;
13026;SDS011;6580;42.680;23.324;2023-04-09T16:00:38;10.00;;;8.20;;
13026;SDS011;6580;42.680;23.324;2023-04-09T16:03:23;9.27;;;8.37;;
13026;SDS011;6580;42.680;23.324;2023-04-09T16:06:10;8.53;;;7.63;;
13026;SDS011;6580;42.680;23.324;2023-04-09T16:08:56;10.20;;;7.80;;
13026;SDS011;6580;42.680;23.324;2023-04-09T16:11:42;7.70;;;6.90;;
13026;SDS011;6580;42.680;23.324;2023-04-09T16:17:33;8.87;;;7.93;;
13026;SDS011;6580;42.680;23.324;2023-04-09T16:20:19;8.73;;;6.80;;
13026;SDS011;6580;42.680;23.324;2023-04-09T16:23:04;8.27;;;7.47;;
13026;SDS011;6580;42.680;23.324;2023-04-09T16:25:49;7.80;;;7.00;;
13026;SDS011;6580;42.680;23.324;2023-04-09T16:28:35;9.57;;;7.80;;
13026;SDS011;6580;42.680;23.324;2023-04-09T16:31:22;7.63;;;6.80;;
13026;SDS011;6580;42.680;23.324;2023-04-09T16:34:07;7.70;;;6.90;;
13026;SDS011;6580;42.680;23.324;2023-04-09T16:36:53;8.87;;;7.47;;
13026;SDS011;6580;42.680;23.324;2023-04-09T16:39:38;7.80;;;6.67;;
13026;SDS011;6580;42.680;23.324;2023-04-09T16:42:26;8.60;;;7.70;;